Time;durP1;ratioP1;P1;durP2;ratioP2;P2;SDS_P1;SDS_P2;PMS_P1;PMS_P2;Temp;Humidity;BMP_temperature;BMP_pressure;BME280_temperature;BME280_humidity;BME280_pressure;Samples;Min_cycle;Max_cycle;Signal;HPM_P1;HPM_P2
2023/07/01 00:00:07;;;;;;;10.40;3.95;;;20.40;97.80;;;;;;4805390;29;20061;-79
2023/07/01 00:02:39;;;;;;;5.50;3.30;;;20.40;97.90;;;;;;4834319;29;20058;-79
2023/07/01 00:05:09;;;;;;;6.13;2.95;;;20.40;98.40;;;;;;4807472;29;20145;-79
2023/07/01 00:07:37;;;;;;;7.45;4.05;;;20.40;99.10;;;;;;4790903;29;20085;-79
2023/07/01 00:10:04;;;;;;;6.30;3.55;;;20.30;98.90;;;;;;4806848;29;20073;-79
2023/07/01 00:12:31;;;;;;;11.15;3.85;;;20.40;99.00;;;;;;4831214;29;20056;-80
2023/07/01 00:14:59;;;;;;;10.02;4.45;;;20.30;98.60;;;;;;4805352;29;20061;-79
2023/07/01 00:17:26;;;;;;;6.00;4.22;;;20.30;98.50;;;;;;4833156;29;20977;-79
2023/07/01 00:19:53;;;;;;;8.05;3.55;;;20.30;98.20;;;;;;4834770;29;20054;-79
2023/07/01 00:22:20;;;;;;;11.40;3.50;;;20.30;98.20;;;;;;4804840;29;20057;-79
2023/07/01 00:24:48;;;;;;;6.55;4.13;;;20.30;98.80;;;;;;4817865;29;20046;-79
2023/07/01 00:27:15;;;;;;;6.13;3.15;;;20.20;98.70;;;;;;4819456;29;20061;-79
2023/07/01 00:29:42;;;;;;;6.22;3.83;;;20.20;98.60;;;;;;4834739;29;20150;-79
2023/07/01 00:32:10;;;;;;;8.98;4.53;;;20.20;98.50;;;;;;4818041;29;20053;-79
2023/07/01 00:34:37;;;;;;;7.63;4.05;;;20.20;98.40;;;;;;4804746;29;22637;-79
2023/07/01 00:37:04;;;;;;;8.85;3.15;;;20.10;98.30;;;;;;4803372;29;20053;-79
2023/07/01 00:39:31;;;;;;;7.25;3.88;;;20.10;98.80;;;;;;4832040;29;20120;-79
2023/07/01 00:41:59;;;;;;;11.02;5.13;;;20.20;98.70;;;;;;4829292;29;20068;-79
2023/07/01 00:44:26;;;;;;;10.40;5.20;;;20.10;98.80;;;;;;4802629;29;20054;-79
2023/07/01 00:46:53;;;;;;;11.02;5.50;;;20.00;98.70;;;;;;4819014;29;20053;-79
2023/07/01 00:49:22;;;;;;;9.48;5.70;;;20.00;98.70;;;;;;4816129;29;20072;-80
2023/07/01 00:51:49;;;;;;;7.82;5.35;;;20.00;98.80;;;;;;4802130;29;20061;-79
2023/07/01 00:54:16;;;;;;;11.50;4.50;;;20.00;99.00;;;;;;4818154;29;20673;-79
2023/07/01 00:56:44;;;;;;;9.05;4.28;;;20.00;98.90;;;;;;4818602;29;20046;-79
2023/07/01 00:59:11;;;;;;;10.35;4.20;;;19.90;98.90;;;;;;4804791;29;20049;-79
2023/07/01 01:01:42;;;;;;;5.75;3.83;;;19.90;99.20;;;;;;4816632;29;20058;-79
2023/07/01 01:04:29;;;;;;;5.85;4.13;;;19.90;99.30;;;;;;4832160;29;20137;-79
2023/07/01 01:07:12;;;;;;;9.57;4.55;;;19.90;99.60;;;;;;4811210;29;20088;-79
2023/07/01 01:09:52;;;;;;;5.88;3.90;;;19.90;99.70;;;;;;4820797;29;20045;-79
2023/07/01 01:12:23;;;;;;;7.65;4.45;;;19.80;99.40;;;;;;4820186;29;20054;-79
2023/07/01 01:14:52;;;;;;;7.28;4.43;;;19.80;99.60;;;;;;4805076;29;20125;-79
2023/07/01 01:17:21;;;;;;;7.45;4.25;;;19.80;99.30;;;;;;4815965;29;20150;-79
2023/07/01 01:19:53;;;;;;;9.00;4.78;;;19.80;99.30;;;;;;4832403;29;20102;-79
2023/07/01 01:22:40;;;;;;;7.18;4.20;;;19.70;99.30;;;;;;4830419;29;20053;-79
2023/07/01 01:25:37;;;;;;;6.93;4.43;;;19.70;99.70;;;;;;4803300;29;20518;-79
2023/07/01 01:28:05;;;;;;;7.40;4.38;;;19.70;99.90;;;;;;4834567;29;20141;-79
2023/07/01 01:30:34;;;;;;;7.43;4.43;;;19.70;99.90;;;;;;4826174;29;20072;-79
2023/07/01 01:33:02;;;;;;;5.32;3.90;;;19.60;99.90;;;;;;4829633;29;20074;-79
2023/07/01 01:35:29;;;;;;;8.10;4.60;;;19.60;99.90;;;;;;4811997;29;20054;-79
2023/07/01 01:38:04;;;;;;;7.80;4.53;;;19.50;99.80;;;;;;4807508;29;20049;-79
2023/07/01 01:40:47;;;;;;;7.03;4.55;;;19.60;99.70;;;;;;4809884;29;20046;-79
2023/07/01 01:43:27;;;;;;;8.05;4.65;;;19.50;99.80;;;;;;4817964;29;20105;-79
2023/07/01 01:45:55;;;;;;;7.90;4.88;;;19.50;99.90;;;;;;4820274;29;20045;-79
2023/07/01 01:48:23;;;;;;;7.95;4.50;;;19.50;99.90;;;;;;4822622;29;20073;-79
2023/07/01 01:50:52;;;;;;;8.40;4.30;;;19.50;99.70;;;;;;4823250;29;22778;-79
2023/07/01 01:53:22;;;;;;;9.05;4.82;;;19.50;99.90;;;;;;4822043;29;20053;-79
2023/07/01 01:55:50;;;;;;;7.75;4.60;;;19.50;99.90;;;;;;4818164;29;20111;-79
2023/07/01 01:58:17;;;;;;;7.13;4.45;;;19.50;99.90;;;;;;4806795;29;20521;-79
2023/07/01 02:00:48;;;;;;;6.25;4.03;;;19.40;99.90;;;;;;4806442;29;20057;-79
2023/07/01 02:03:16;;;;;;;8.65;4.25;;;19.40;99.90;;;;;;4837939;29;20065;-79
2023/07/01 02:05:43;;;;;;;8.90;4.57;;;19.40;99.90;;;;;;4821058;29;20046;-79
2023/07/01 02:08:11;;;;;;;8.13;4.18;;;19.30;99.60;;;;;;4803644;29;20054;-79
2023/07/01 02:10:38;;;;;;;5.88;3.67;;;19.40;99.70;;;;;;4813706;29;20086;-79
2023/07/01 02:13:06;;;;;;;11.57;4.28;;;19.30;99.30;;;;;;4822600;29;20050;-79
2023/07/01 02:15:33;;;;;;;4.93;3.42;;;19.30;99.50;;;;;;4818922;29;22733;-79
2023/07/01 02:18:00;;;;;;;7.35;3.97;;;19.30;99.50;;;;;;4827617;29;20045;-79
2023/07/01 02:20:27;;;;;;;5.85;4.05;;;19.30;99.50;;;;;;4835575;29;21011;-79
2023/07/01 02:22:54;;;;;;;5.50;3.33;;;19.30;99.40;;;;;;4821654;29;20177;-79
2023/07/01 02:25:22;;;;;;;10.20;4.13;;;19.20;99.40;;;;;;4819154;29;20069;-79
2023/07/01 02:27:49;;;;;;;7.18;4.35;;;19.20;99.50;;;;;;4806085;29;20125;-79
2023/07/01 02:30:16;;;;;;;6.28;4.32;;;19.20;99.80;;;;;;4808317;29;20057;-79
2023/07/01 02:32:43;;;;;;;5.68;3.95;;;19.20;99.80;;;;;;4806665;29;20053;-79
2023/07/01 02:35:11;;;;;;;4.95;3.72;;;19.20;99.90;;;;;;4834915;29;20133;-79
2023/07/01 02:37:38;;;;;;;5.97;4.07;;;19.10;99.90;;;;;;4808378;29;20042;-79
2023/07/01 02:40:06;;;;;;;6.68;4.28;;;19.20;99.90;;;;;;4818830;29;20133;-79
2023/07/01 02:42:33;;;;;;;6.82;4.40;;;19.10;99.90;;;;;;4807432;29;20046;-79
2023/07/01 02:45:00;;;;;;;5.88;3.70;;;19.10;99.90;;;;;;4831666;29;20077;-79
2023/07/01 02:47:27;;;;;;;8.50;4.38;;;19.10;99.90;;;;;;4825483;29;20053;-78
2023/07/01 02:49:55;;;;;;;5.20;3.53;;;19.10;99.90;;;;;;4835506;29;20042;-79
2023/07/01 02:52:22;;;;;;;6.85;3.67;;;19.10;99.90;;;;;;4835498;29;20053;-79
2023/07/01 02:54:50;;;;;;;5.00;4.15;;;19.10;99.90;;;;;;4833163;29;20088;-79
2023/07/01 02:57:17;;;;;;;8.25;4.22;;;19.00;99.90;;;;;;4805561;29;20057;-79
2023/07/01 02:59:46;;;;;;;4.78;3.80;;;19.00;99.90;;;;;;4835375;29;20046;-79
2023/07/01 03:02:13;;;;;;;5.18;4.38;;;19.00;99.80;;;;;;4804961;29;20510;-79
2023/07/01 03:04:40;;;;;;;9.05;4.20;;;19.00;99.90;;;;;;4816774;29;20064;-79
2023/07/01 03:07:08;;;;;;;7.15;4.82;;;19.00;99.90;;;;;;4833984;29;20528;-79
2023/07/01 03:09:35;;;;;;;6.38;4.25;;;19.00;99.90;;;;;;4835831;29;20111;-79
2023/07/01 03:12:02;;;;;;;4.72;4.20;;;19.00;99.90;;;;;;4808795;29;20066;-79
2023/07/01 03:14:30;;;;;;;5.05;3.53;;;19.00;99.90;;;;;;4836565;29;20050;-79
2023/07/01 03:16:57;;;;;;;11.68;4.43;;;19.00;99.90;;;;;;4814622;29;20050;-79
2023/07/01 03:19:24;;;;;;;7.47;3.75;;;18.90;99.90;;;;;;4834522;29;20068;-79
2023/07/01 03:21:51;;;;;;;8.77;4.25;;;18.90;99.90;;;;;;4820744;29;20057;-79
2023/07/01 03:24:18;;;;;;;5.53;4.28;;;18.90;99.90;;;;;;4822470;29;20058;-79
2023/07/01 03:26:46;;;;;;;8.20;4.93;;;19.00;99.90;;;;;;4832459;29;20456;-79
2023/07/01 03:29:13;;;;;;;7.25;4.22;;;19.00;99.90;;;;;;4819100;29;20122;-79
2023/07/01 03:31:40;;;;;;;6.40;4.70;;;19.00;99.90;;;;;;4821379;29;22897;-79
2023/07/01 03:34:07;;;;;;;6.65;4.03;;;19.00;99.90;;;;;;4806174;29;20054;-79
2023/07/01 03:36:35;;;;;;;5.63;4.15;;;19.00;99.90;;;;;;4805055;29;20062;-79
2023/07/01 03:39:03;;;;;;;6.72;3.88;;;19.00;99.90;;;;;;4805260;29;20066;-79
2023/07/01 03:41:30;;;;;;;8.95;4.35;;;19.10;99.90;;;;;;4832978;29;20097;-79
2023/07/01 03:43:57;;;;;;;8.25;4.85;;;19.10;99.90;;;;;;4804932;29;20066;-79
2023/07/01 03:46:24;;;;;;;5.47;4.35;;;19.00;99.90;;;;;;4802351;29;20623;-79
2023/07/01 03:48:52;;;;;;;6.72;4.18;;;19.00;99.90;;;;;;4833956;29;20050;-79
2023/07/01 03:51:19;;;;;;;6.53;4.10;;;19.20;99.90;;;;;;4821228;29;20057;-78
2023/07/01 03:53:46;;;;;;;5.47;3.90;;;19.20;99.80;;;;;;4834406;29;20046;-79
2023/07/01 03:56:13;;;;;;;6.40;4.25;;;19.20;99.80;;;;;;4806431;29;20058;-79
2023/07/01 03:58:40;;;;;;;6.43;4.20;;;19.30;99.90;;;;;;4821525;29;20054;-79
2023/07/01 04:01:07;;;;;;;9.38;4.63;;;19.40;99.90;;;;;;4816123;29;20061;-79
2023/07/01 04:03:37;;;;;;;6.93;4.90;;;19.40;99.80;;;;;;4820852;29;20160;-79
2023/07/01 04:06:05;;;;;;;9.07;4.18;;;19.50;99.40;;;;;;4836319;29;20041;-79
2023/07/01 04:08:32;;;;;;;5.50;4.47;;;19.60;99.60;;;;;;4836008;29;20045;-79
2023/07/01 04:11:00;;;;;;;10.10;4.32;;;19.70;99.60;;;;;;4835354;29;20041;-79
2023/07/01 04:13:29;;;;;;;6.57;4.30;;;19.80;99.10;;;;;;4819955;29;20141;-79
2023/07/01 04:15:56;;;;;;;7.13;5.00;;;19.80;98.70;;;;;;4804499;29;20049;-79
2023/07/01 04:18:23;;;;;;;9.95;4.97;;;19.80;98.20;;;;;;4818408;29;20073;-79
2023/07/01 04:20:50;;;;;;;7.68;4.82;;;19.90;97.60;;;;;;4818651;29;22746;-79
2023/07/01 04:23:17;;;;;;;6.15;4.82;;;19.90;97.00;;;;;;4829461;29;20054;-79
2023/07/01 04:25:44;;;;;;;7.63;4.95;;;19.90;97.00;;;;;;4817495;29;20526;-79
2023/07/01 04:28:12;;;;;;;8.98;4.95;;;20.00;97.00;;;;;;4834878;29;20042;-79
2023/07/01 04:30:39;;;;;;;6.70;4.63;;;20.00;96.70;;;;;;4820056;29;20054;-79
2023/07/01 04:33:06;;;;;;;6.32;4.93;;;20.10;97.10;;;;;;4806474;29;20726;-78
2023/07/01 04:35:36;;;;;;;7.00;4.95;;;20.10;96.90;;;;;;4820474;29;20049;-79
2023/07/01 04:38:04;;;;;;;7.07;5.32;;;20.10;96.20;;;;;;4831895;29;20102;-79
2023/07/01 04:40:31;;;;;;;6.82;5.00;;;20.20;96.30;;;;;;4821067;29;20053;-79
2023/07/01 04:42:58;;;;;;;7.32;5.07;;;20.20;95.90;;;;;;4834391;29;21741;-78
2023/07/01 04:45:27;;;;;;;5.97;4.65;;;20.30;95.60;;;;;;4832788;29;20133;-79
2023/07/01 04:47:54;;;;;;;7.15;4.95;;;20.30;95.40;;;;;;4808126;29;20103;-79
2023/07/01 04:50:23;;;;;;;5.32;4.82;;;20.40;95.60;;;;;;4804749;29;20050;-78
2023/07/01 04:52:50;;;;;;;5.20;3.92;;;20.40;95.30;;;;;;4815797;29;20056;-79
2023/07/01 04:55:18;;;;;;;7.38;5.30;;;20.60;95.40;;;;;;4803471;29;20461;-78
2023/07/01 04:57:45;;;;;;;6.03;5.07;;;20.60;95.30;;;;;;4834951;29;20054;-79
2023/07/01 05:00:14;;;;;;;6.90;5.05;;;20.20;95.20;;;;;;4817804;29;20054;-79
2023/07/01 05:02:41;;;;;;;6.97;5.53;;;20.70;95.70;;;;;;4829524;29;20066;-78
2023/07/01 05:05:09;;;;;;;5.40;4.70;;;20.80;95.00;;;;;;4818539;29;20715;-79
2023/07/01 05:07:36;;;;;;;5.45;4.25;;;20.90;95.10;;;;;;4812185;29;20510;-79
2023/07/01 05:10:04;;;;;;;5.80;4.32;;;21.00;95.10;;;;;;4817551;29;20054;-79
2023/07/01 05:12:31;;;;;;;6.93;5.22;;;21.10;94.90;;;;;;4819815;29;20109;-79
2023/07/01 05:14:58;;;;;;;7.57;4.80;;;21.20;94.80;;;;;;4820896;29;20048;-79
2023/07/01 05:17:25;;;;;;;5.85;5.05;;;21.30;94.90;;;;;;4819181;29;20058;-79
2023/07/01 05:19:52;;;;;;;7.70;5.63;;;21.50;94.90;;;;;;4820339;29;20050;-79
2023/07/01 05:22:19;;;;;;;7.10;5.72;;;21.60;95.10;;;;;;4805615;29;20077;-79
2023/07/01 05:24:47;;;;;;;6.57;5.15;;;21.80;94.70;;;;;;4820682;29;20054;-79
2023/07/01 05:27:14;;;;;;;5.43;4.93;;;21.90;94.20;;;;;;4832331;29;20138;-79
2023/07/01 05:29:41;;;;;;;6.85;5.90;;;21.50;93.50;;;;;;4816186;29;20046;-79
2023/07/01 05:32:10;;;;;;;6.22;4.90;;;22.10;94.00;;;;;;4801925;29;20062;-79
2023/07/01 05:34:38;;;;;;;4.28;3.80;;;22.20;93.10;;;;;;4801026;29;20181;-78
2023/07/01 05:37:05;;;;;;;5.90;5.35;;;22.30;92.40;;;;;;4833996;29;20066;-79
2023/07/01 05:39:32;;;;;;;8.15;4.75;;;22.40;92.10;;;;;;4817905;29;20559;-79
2023/07/01 05:42:00;;;;;;;5.80;4.20;;;22.50;91.90;;;;;;4810565;29;20110;-79
2023/07/01 05:44:27;;;;;;;6.88;4.80;;;22.50;91.40;;;;;;4821927;29;20129;-79
2023/07/01 05:46:54;;;;;;;7.78;4.95;;;22.60;91.30;;;;;;4802947;29;20061;-79
2023/07/01 05:49:21;;;;;;;5.90;4.32;;;22.70;91.40;;;;;;4818385;29;20062;-79
2023/07/01 05:51:48;;;;;;;7.35;4.82;;;22.80;91.10;;;;;;4834118;29;20149;-79
2023/07/01 05:54:16;;;;;;;6.93;4.97;;;22.80;90.60;;;;;;4819898;29;20130;-79
2023/07/01 05:56:43;;;;;;;6.28;4.80;;;22.80;90.40;;;;;;4804145;29;20042;-79
2023/07/01 05:59:11;;;;;;;8.38;4.90;;;22.90;90.50;;;;;;4814218;29;20502;-79
2023/07/01 06:01:39;;;;;;;6.55;4.78;;;23.00;90.30;;;;;;4832820;29;20110;-79
2023/07/01 06:04:06;;;;;;;6.10;4.63;;;23.10;90.70;;;;;;4825155;29;20060;-79
2023/07/01 06:06:33;;;;;;;4.70;4.15;;;23.20;89.90;;;;;;4803878;29;20078;-79
2023/07/01 06:09:01;;;;;;;4.90;4.20;;;23.40;90.00;;;;;;4815985;29;20058;-79
2023/07/01 06:11:28;;;;;;;5.88;4.43;;;23.50;87.90;;;;;;4816514;29;20057;-80
2023/07/01 06:13:55;;;;;;;5.60;4.57;;;23.50;87.30;;;;;;4802877;29;20066;-79
2023/07/01 06:16:22;;;;;;;7.05;4.40;;;23.50;86.40;;;;;;4815561;29;20429;-79
2023/07/01 06:18:49;;;;;;;5.63;5.07;;;23.70;86.30;;;;;;4814169;29;20054;-79
2023/07/01 06:21:16;;;;;;;6.32;4.22;;;23.80;85.20;;;;;;4819518;29;20051;-80
2023/07/01 06:23:44;;;;;;;4.40;4.00;;;23.90;85.40;;;;;;4817058;29;20054;-80
2023/07/01 06:26:12;;;;;;;7.72;5.22;;;24.00;84.20;;;;;;4801469;29;20054;-80
2023/07/01 06:28:43;;;;;;;7.60;4.78;;;24.10;85.00;;;;;;4811243;29;20050;-81
2023/07/01 06:31:10;;;;;;;4.80;4.40;;;24.20;84.40;;;;;;4832181;29;20058;-81
2023/07/01 06:33:41;;;;;;;5.82;4.53;;;24.10;85.30;;;;;;4819328;29;20082;-82
2023/07/01 06:36:08;;;;;;;6.63;4.38;;;24.10;83.60;;;;;;4820843;29;20045;-79
2023/07/01 06:38:35;;;;;;;5.03;4.50;;;24.30;85.30;;;;;;4808286;29;23035;-81
2023/07/01 06:41:03;;;;;;;7.38;5.38;;;24.30;83.70;;;;;;4836154;29;20121;-80
2023/07/01 06:43:30;;;;;;;5.47;4.85;;;24.50;84.60;;;;;;4819558;29;20058;-82
2023/07/01 06:45:59;;;;;;;6.60;4.78;;;24.50;84.50;;;;;;4804211;29;20054;-81
2023/07/01 06:48:26;;;;;;;5.80;4.65;;;24.60;83.00;;;;;;4820180;29;22755;-81
2023/07/01 06:50:53;;;;;;;6.32;5.35;;;24.70;82.90;;;;;;4819717;29;20042;-81
2023/07/01 06:53:20;;;;;;;5.88;5.25;;;24.80;82.90;;;;;;4803656;29;20045;-81
2023/07/01 06:55:47;;;;;;;7.13;5.05;;;24.80;81.30;;;;;;4817901;29;20062;-81
2023/07/01 06:58:14;;;;;;;9.35;5.47;;;24.80;83.30;;;;;;4813880;29;20383;-81
2023/07/01 07:00:43;;;;;;;7.75;5.20;;;24.80;81.70;;;;;;4817281;29;20058;-81
2023/07/01 07:03:11;;;;;;;7.55;5.22;;;24.90;81.30;;;;;;4795554;29;20056;-81
2023/07/01 07:05:38;;;;;;;6.00;4.75;;;25.00;81.00;;;;;;4800524;29;20209;-82
2023/07/01 07:08:06;;;;;;;4.63;4.13;;;25.10;81.10;;;;;;4835932;29;20073;-81
2023/07/01 07:10:34;;;;;;;5.32;4.45;;;25.20;79.80;;;;;;4816306;29;20168;-81
2023/07/01 07:13:01;;;;;;;5.15;4.60;;;25.30;79.10;;;;;;4805024;29;20062;-81
2023/07/01 07:15:28;;;;;;;5.93;4.40;;;25.40;80.30;;;;;;4818665;29;20054;-81
2023/07/01 07:17:55;;;;;;;7.30;4.80;;;25.40;79.50;;;;;;4817036;29;22773;-80
2023/07/01 07:20:22;;;;;;;7.65;5.60;;;25.40;77.30;;;;;;4808386;29;20126;-81
2023/07/01 07:22:49;;;;;;;7.35;4.75;;;25.50;79.00;;;;;;4820247;29;20148;-80
2023/07/01 07:25:17;;;;;;;6.18;4.88;;;25.70;79.90;;;;;;4818390;29;20071;-81
2023/07/01 07:27:45;;;;;;;5.80;5.20;;;25.60;79.10;;;;;;4821841;29;20049;-81
2023/07/01 07:30:15;;;;;;;9.30;5.28;;;25.60;79.50;;;;;;4807246;29;20094;-80
2023/07/01 07:32:42;;;;;;;8.32;4.88;;;25.80;81.10;;;;;;4819548;29;20144;-80
2023/07/01 07:35:10;;;;;;;8.85;4.78;;;25.80;78.10;;;;;;4832182;29;20054;-81
2023/07/01 07:37:38;;;;;;;6.28;4.70;;;25.80;77.10;;;;;;4833401;29;20057;-81
2023/07/01 07:40:07;;;;;;;7.47;5.40;;;25.90;79.30;;;;;;4820329;29;20145;-82
2023/07/01 07:42:35;;;;;;;6.05;5.03;;;26.10;78.00;;;;;;4823778;29;20144;-82
2023/07/01 07:45:04;;;;;;;12.57;5.28;;;26.20;76.60;;;;;;4835254;29;20083;-82
2023/07/01 07:47:31;;;;;;;7.35;5.13;;;26.20;77.80;;;;;;4826236;29;20053;-80
2023/07/01 07:50:00;;;;;;;7.20;4.68;;;26.00;75.20;;;;;;4814612;29;20043;-81
2023/07/01 07:52:27;;;;;;;8.15;5.20;;;26.10;76.40;;;;;;4804659;29;20050;-81
2023/07/01 07:54:54;;;;;;;5.55;5.03;;;26.10;76.60;;;;;;4802447;29;20555;-81
2023/07/01 07:57:21;;;;;;;6.13;4.78;;;26.30;77.70;;;;;;4838273;29;20129;-81
2023/07/01 07:59:48;;;;;;;5.43;4.75;;;26.50;78.60;;;;;;4834235;29;20054;-80
2023/07/01 08:02:15;;;;;;;5.97;4.57;;;26.50;76.90;;;;;;4834537;29;20050;-81
2023/07/01 08:04:43;;;;;;;5.60;4.35;;;26.70;76.00;;;;;;4820305;29;20046;-77
2023/07/01 08:07:10;;;;;;;6.68;4.55;;;26.80;75.60;;;;;;4819034;29;20166;-81
2023/07/01 08:09:38;;;;;;;5.82;4.30;;;26.70;74.70;;;;;;4822812;29;20050;-80
2023/07/01 08:12:06;;;;;;;6.05;5.00;;;26.70;75.80;;;;;;4819782;29;22402;-80
2023/07/01 08:14:33;;;;;;;8.38;4.60;;;26.60;73.70;;;;;;4841583;29;20460;-81
2023/07/01 08:17:00;;;;;;;7.97;5.00;;;26.70;76.40;;;;;;4820794;29;20529;-79
2023/07/01 08:19:27;;;;;;;5.45;4.50;;;26.80;74.90;;;;;;4833713;29;20082;-81
2023/07/01 08:21:55;;;;;;;4.82;4.25;;;27.00;76.10;;;;;;4818274;29;20054;-80
2023/07/01 08:24:22;;;;;;;6.45;4.32;;;27.10;74.20;;;;;;4814956;29;20048;-81
2023/07/01 08:26:49;;;;;;;6.03;4.47;;;27.10;74.90;;;;;;4796511;29;20066;-79
2023/07/01 08:29:16;;;;;;;5.63;4.28;;;27.20;74.50;;;;;;4804598;29;20046;-80
2023/07/01 08:31:43;;;;;;;6.75;4.10;;;27.10;74.20;;;;;;4811390;29;20058;-79
2023/07/01 08:34:11;;;;;;;9.07;4.10;;;26.80;75.50;;;;;;4822489;29;20082;-80
2023/07/01 08:36:38;;;;;;;7.22;4.13;;;26.60;75.50;;;;;;4814476;29;20081;-81
2023/07/01 08:39:05;;;;;;;5.65;3.35;;;26.90;74.30;;;;;;4834404;29;20050;-77
2023/07/01 08:41:39;;;;;;;4.75;3.58;;;27.10;74.80;;;;;;4818737;29;20137;-79
2023/07/01 08:44:08;;;;;;;5.63;3.08;;;27.20;74.70;;;;;;4806857;29;20118;-79
2023/07/01 08:46:37;;;;;;;4.85;3.13;;;27.20;73.40;;;;;;4835833;29;20050;-80
2023/07/01 08:49:06;;;;;;;4.03;3.17;;;27.40;73.30;;;;;;4816922;29;20064;-81
2023/07/01 08:51:40;;;;;;;4.05;3.00;;;27.50;73.00;;;;;;4836710;29;20073;-79
2023/07/01 08:54:09;;;;;;;4.50;2.67;;;27.50;72.00;;;;;;4799702;29;20050;-79
2023/07/01 08:56:36;;;;;;;3.35;3.00;;;27.50;71.10;;;;;;4818878;29;20467;-80
2023/07/01 08:59:05;;;;;;;3.28;2.33;;;27.60;70.80;;;;;;4817171;29;20923;-80
2023/07/01 09:01:33;;;;;;;3.22;2.70;;;27.70;70.00;;;;;;4831231;29;20053;-80
2023/07/01 09:04:01;;;;;;;3.22;2.75;;;27.70;71.60;;;;;;4801561;29;20054;-79
2023/07/01 09:06:29;;;;;;;5.15;2.85;;;27.70;71.00;;;;;;4818117;29;20517;-77
2023/07/01 09:08:56;;;;;;;2.58;2.38;;;27.70;69.30;;;;;;4817556;29;20185;-80
2023/07/01 09:11:23;;;;;;;3.08;2.38;;;27.70;70.20;;;;;;4818411;29;20053;-77
2023/07/01 09:13:55;;;;;;;3.85;2.90;;;27.80;68.90;;;;;;4820260;29;20046;-81
2023/07/01 09:16:34;;;;;;;3.33;2.40;;;27.90;69.80;;;;;;4816890;29;20056;-78
2023/07/01 09:19:16;;;;;;;3.45;2.55;;;28.00;67.70;;;;;;4820010;29;20056;-80
2023/07/01 09:21:44;;;;;;;2.97;2.55;;;28.10;69.20;;;;;;4830711;29;20142;-77
2023/07/01 09:24:12;;;;;;;3.63;2.60;;;28.20;67.90;;;;;;4833672;29;20054;-79
2023/07/01 09:26:40;;;;;;;4.13;2.80;;;28.20;68.30;;;;;;4818772;29;20049;-79
2023/07/01 09:29:15;;;;;;;3.40;2.28;;;28.30;69.00;;;;;;4834195;29;20046;-79
2023/07/01 09:31:51;;;;;;;3.25;2.47;;;28.30;66.80;;;;;;4805565;29;20042;-81
2023/07/01 09:34:19;;;;;;;3.10;2.80;;;28.30;66.60;;;;;;4830663;29;20042;-81
2023/07/01 09:36:46;;;;;;;4.70;3.20;;;28.30;67.20;;;;;;4831702;29;20058;-79
2023/07/01 09:39:13;;;;;;;5.20;3.08;;;28.30;68.10;;;;;;4797982;29;20054;-80
2023/07/01 09:41:49;;;;;;;6.75;3.55;;;28.40;68.90;;;;;;4831962;29;20053;-80
2023/07/01 09:44:19;;;;;;;4.47;3.22;;;28.40;67.80;;;;;;4805796;29;20054;-78
2023/07/01 09:46:46;;;;;;;3.60;3.05;;;28.60;69.20;;;;;;4816059;29;20054;-80
2023/07/01 09:49:14;;;;;;;5.13;3.15;;;28.60;68.60;;;;;;4819711;29;20038;-81
2023/07/01 09:51:49;;;;;;;3.95;3.00;;;28.60;69.80;;;;;;4831459;29;20066;-81
2023/07/01 09:54:27;;;;;;;2.78;2.40;;;28.60;67.30;;;;;;4813627;29;20451;-81
2023/07/01 09:56:56;;;;;;;3.25;2.53;;;28.40;65.80;;;;;;4826225;29;20058;-78
2023/07/01 09:59:24;;;;;;;5.07;3.10;;;28.40;67.00;;;;;;4804439;29;20145;-82
2023/07/01 10:01:54;;;;;;;3.85;2.90;;;28.50;68.00;;;;;;4818421;29;20050;-80
2023/07/01 10:04:28;;;;;;;5.10;2.83;;;28.50;68.90;;;;;;4813803;29;20081;-81
2023/07/01 10:06:59;;;;;;;4.35;3.40;;;28.50;68.20;;;;;;4833086;29;20046;-81
2023/07/01 10:09:27;;;;;;;4.88;3.50;;;28.50;68.70;;;;;;4810862;29;20050;-82
2023/07/01 10:11:59;;;;;;;4.28;3.00;;;28.60;68.80;;;;;;4820159;29;20057;-78
2023/07/01 10:14:32;;;;;;;4.63;3.20;;;28.60;68.00;;;;;;4817336;29;20054;-82
2023/07/01 10:17:01;;;;;;;10.43;3.85;;;28.40;67.70;;;;;;4818243;29;22819;-78
2023/07/01 10:19:32;;;;;;;5.38;2.50;;;28.40;69.70;;;;;;4835756;29;20066;-79
2023/07/01 10:22:22;;;;;;;3.97;3.17;;;28.40;68.30;;;;;;4805786;29;20058;-77
2023/07/01 10:25:09;;;;;;;3.80;3.38;;;28.40;67.30;;;;;;4800152;29;20053;-81
2023/07/01 10:27:43;;;;;;;3.53;2.90;;;28.40;69.10;;;;;;4836251;29;20073;-78
2023/07/01 10:30:12;;;;;;;3.63;3.20;;;28.40;68.30;;;;;;4802967;29;20050;-81
2023/07/01 10:32:40;;;;;;;5.43;3.00;;;28.40;67.90;;;;;;4795200;29;20053;-82
2023/07/01 10:35:09;;;;;;;4.28;3.40;;;28.40;68.10;;;;;;4836346;29;20054;-78
2023/07/01 10:37:36;;;;;;;2.95;2.63;;;28.60;68.80;;;;;;4817291;29;20112;-80
2023/07/01 10:40:33;;;;;;;4.32;2.88;;;28.60;68.10;;;;;;4820361;29;20077;-80
2023/07/01 10:43:32;;;;;;;3.92;2.50;;;28.60;68.40;;;;;;4822276;29;20076;-81
2023/07/01 10:46:03;;;;;;;3.83;2.63;;;28.70;70.00;;;;;;4808230;29;20163;-79
2023/07/01 10:48:30;;;;;;;2.70;1.98;;;28.90;68.60;;;;;;4800132;29;20050;-79
2023/07/01 10:51:02;;;;;;;2.83;2.50;;;28.80;67.60;;;;;;4839071;29;20506;-80
2023/07/01 10:53:30;;;;;;;3.45;2.47;;;28.80;68.10;;;;;;4835281;29;20042;-80
2023/07/01 10:56:14;;;;;;;2.42;2.22;;;28.80;67.30;;;;;;4809412;29;20056;-81
2023/07/01 10:58:41;;;;;;;3.15;2.70;;;28.90;67.10;;;;;;4821542;29;20084;-81
2023/07/01 11:01:29;;;;;;;3.20;2.50;;;28.50;65.70;;;;;;4836374;29;20073;-81
2023/07/01 11:03:57;;;;;;;4.43;2.85;;;28.40;67.40;;;;;;4823083;29;20053;-79
2023/07/01 11:06:24;;;;;;;3.72;2.53;;;28.20;68.30;;;;;;4810169;29;20056;-81
2023/07/01 11:08:53;;;;;;;6.13;2.50;;;28.20;68.90;;;;;;4820576;29;20050;-79
2023/07/01 11:11:32;;;;;;;4.50;2.75;;;28.30;69.70;;;;;;4820280;29;20129;-81
2023/07/01 11:14:05;;;;;;;3.58;3.28;;;28.30;71.80;;;;;;4820080;29;20510;-81
2023/07/01 11:16:33;;;;;;;5.72;3.70;;;28.30;71.80;;;;;;4830912;29;20746;-81
2023/07/01 11:19:14;;;;;;;5.07;3.30;;;28.30;73.20;;;;;;4818706;29;21109;-80
2023/07/01 11:21:43;;;;;;;4.20;3.70;;;28.20;72.70;;;;;;4820481;29;20144;-81
2023/07/01 11:24:10;;;;;;;4.05;3.30;;;28.20;72.70;;;;;;4811222;29;20103;-80
2023/07/01 11:26:39;;;;;;;4.22;3.42;;;28.20;72.30;;;;;;4833916;29;20111;-81
2023/07/01 11:29:15;;;;;;;3.85;3.22;;;28.30;73.40;;;;;;4819577;29;20049;-81
2023/07/01 11:31:42;;;;;;;7.95;3.33;;;28.50;72.50;;;;;;4834982;29;20053;-79
2023/07/01 11:34:15;;;;;;;5.03;2.60;;;28.50;69.70;;;;;;4821845;29;20053;-80
2023/07/01 11:36:44;;;;;;;3.83;2.50;;;28.60;69.80;;;;;;4819508;29;20177;-79
2023/07/01 11:39:14;;;;;;;3.17;2.28;;;28.80;69.10;;;;;;4819203;29;20057;-80
2023/07/01 11:41:43;;;;;;;2.35;2.15;;;28.90;69.50;;;;;;4807868;29;20046;-79
2023/07/01 11:44:12;;;;;;;4.25;2.72;;;28.90;68.40;;;;;;4819392;29;20053;-80
2023/07/01 11:46:42;;;;;;;3.72;2.40;;;28.90;68.00;;;;;;4819861;29;20058;-80
2023/07/01 11:49:23;;;;;;;3.20;2.90;;;28.80;67.40;;;;;;4818005;29;20813;-79
2023/07/01 11:51:55;;;;;;;4.63;2.72;;;28.90;69.50;;;;;;4834879;29;20079;-80
2023/07/01 11:54:34;;;;;;;4.63;3.00;;;28.90;69.50;;;;;;4814175;29;20050;-77
2023/07/01 11:57:31;;;;;;;4.75;3.63;;;29.00;69.80;;;;;;4810564;29;20046;-80
2023/07/01 11:59:58;;;;;;;3.28;2.85;;;29.00;69.40;;;;;;4819162;29;20989;-80
2023/07/01 12:02:28;;;;;;;4.00;2.90;;;28.90;67.60;;;;;;4834875;29;20057;-80
2023/07/01 12:04:56;;;;;;;5.28;3.30;;;29.00;70.00;;;;;;4817953;29;22962;-78
2023/07/01 12:07:23;;;;;;;3.47;2.15;;;29.00;68.00;;;;;;4817189;29;21826;-78
2023/07/01 12:09:51;;;;;;;5.43;3.30;;;29.00;66.40;;;;;;4820558;29;20518;-79
2023/07/01 12:12:35;;;;;;;3.50;2.67;;;29.00;67.00;;;;;;4821448;29;20085;-80
2023/07/01 12:15:05;;;;;;;4.72;2.72;;;29.00;68.40;;;;;;4820582;29;22805;-81
2023/07/01 12:17:34;;;;;;;5.32;2.42;;;29.10;68.30;;;;;;4820271;29;20058;-81
2023/07/01 12:20:05;;;;;;;4.75;2.67;;;29.00;67.60;;;;;;4803018;29;20058;-81
2023/07/01 12:22:34;;;;;;;3.83;2.60;;;29.10;67.60;;;;;;4821424;29;21879;-81
2023/07/01 12:25:01;;;;;;;2.65;2.30;;;28.90;66.10;;;;;;4818739;29;20171;-81
2023/07/01 12:27:30;;;;;;;8.70;2.65;;;28.80;65.80;;;;;;4819882;29;20056;-80
2023/07/01 12:29:58;;;;;;;4.53;2.40;;;28.80;65.00;;;;;;4836620;29;20061;-78
2023/07/01 12:32:25;;;;;;;2.90;2.13;;;28.90;64.20;;;;;;4820153;29;20460;-78
2023/07/01 12:34:55;;;;;;;6.35;2.58;;;28.80;64.20;;;;;;4832762;29;20045;-80
2023/07/01 12:37:23;;;;;;;4.90;2.60;;;28.80;65.60;;;;;;4817849;29;20141;-78
2023/07/01 12:39:54;;;;;;;5.63;2.97;;;28.80;65.70;;;;;;4822512;29;20102;-81
2023/07/01 12:42:21;;;;;;;3.35;2.40;;;28.90;64.60;;;;;;4815899;29;20071;-80
2023/07/01 12:44:49;;;;;;;4.30;2.22;;;28.90;66.50;;;;;;4836139;29;20061;-82
2023/07/01 12:47:19;;;;;;;3.70;2.90;;;28.90;66.50;;;;;;4798728;29;20056;-80
2023/07/01 12:49:47;;;;;;;5.28;2.40;;;29.00;66.60;;;;;;4819399;29;20628;-80
2023/07/01 12:52:14;;;;;;;5.30;2.50;;;29.00;67.40;;;;;;4820875;29;20144;-79
2023/07/01 12:54:41;;;;;;;3.90;2.58;;;29.10;66.80;;;;;;4820840;29;20041;-80